Time;durP1;ratioP1;P1;durP2;ratioP2;P2;SDS_P1;SDS_P2;PMS_P1;PMS_P2;Temp;Humidity;BMP_temperature;BMP_pressure;BME280_temperature;BME280_humidity;BME280_pressure;Samples;Min_cycle;Max_cycle;Signal;HPM_P1;HPM_P2
2022/06/03 00:01:53;;;;;;;3.53;3.33;;;15.30;99.90;;;;;;5087536;28;20640;-88
2022/06/03 00:04:40;;;;;;;3.47;3.27;;;15.30;99.90;;;;;;5093493;28;20635;-88
2022/06/03 00:07:21;;;;;;;4.00;3.40;;;15.30;99.90;;;;;;5086164;28;20599;-88
2022/06/03 00:10:08;;;;;;;3.30;3.00;;;15.30;99.90;;;;;;5076299;28;20717;-88
2022/06/03 00:12:58;;;;;;;3.20;2.90;;;15.20;99.90;;;;;;5087344;28;20628;-90
2022/06/03 00:15:46;;;;;;;4.50;3.57;;;15.20;99.90;;;;;;5087771;28;20619;-89
2022/06/03 00:18:51;;;;;;;3.37;3.17;;;15.20;99.90;;;;;;5096753;28;20643;-89
2022/06/03 00:21:42;;;;;;;3.40;3.20;;;15.20;99.90;;;;;;5097423;28;20646;-89
2022/06/03 00:24:26;;;;;;;5.30;3.83;;;15.20;99.90;;;;;;5088487;28;20958;-89
2022/06/03 00:27:15;;;;;;;4.33;3.70;;;15.20;99.90;;;;;;5095193;28;20663;-87
2022/06/03 00:30:03;;;;;;;3.93;3.53;;;15.20;99.90;;;;;;5093316;28;21494;-89
2022/06/03 00:33:03;;;;;;;4.07;3.67;;;15.20;99.90;;;;;;5090847;28;21314;-88
2022/06/03 00:35:54;;;;;;;2.80;2.60;;;15.10;99.90;;;;;;5090746;28;20627;-89
2022/06/03 00:38:43;;;;;;;3.23;3.03;;;15.20;99.90;;;;;;5089021;28;20649;-88
2022/06/03 00:41:25;;;;;;;3.30;3.10;;;15.10;99.90;;;;;;5094930;28;20702;-88
2022/06/03 00:44:19;;;;;;;3.67;3.30;;;15.10;99.90;;;;;;5094169;28;20719;-89
2022/06/03 00:47:07;;;;;;;3.57;3.27;;;15.10;99.90;;;;;;5090469;28;20673;-88
2022/06/03 00:49:56;;;;;;;3.70;3.47;;;15.00;99.90;;;;;;5087031;28;20648;-88
2022/06/03 00:52:51;;;;;;;3.43;2.93;;;15.00;99.90;;;;;;5086846;28;20655;-88
2022/06/03 00:55:59;;;;;;;3.50;3.20;;;14.90;99.90;;;;;;5091992;28;20638;-88
2022/06/03 00:58:41;;;;;;;3.50;3.20;;;14.90;99.90;;;;;;5034592;28;20646;-87
2022/06/03 01:01:13;;;;;;;3.30;3.10;;;14.90;99.90;;;;;;5090932;28;20647;-89
2022/06/03 01:04:04;;;;;;;3.20;2.90;;;14.90;99.90;;;;;;5094227;28;20623;-88
2022/06/03 01:06:44;;;;;;;3.50;3.27;;;14.90;99.90;;;;;;5100936;27;20635;-87
2022/06/03 01:09:25;;;;;;;2.93;2.73;;;14.80;99.90;;;;;;5090295;28;20656;-88
2022/06/03 01:12:14;;;;;;;3.67;2.97;;;14.80;99.90;;;;;;5086733;28;20616;-88
2022/06/03 01:14:54;;;;;;;2.80;2.70;;;14.70;99.90;;;;;;5102661;27;20689;-88
2022/06/03 01:17:31;;;;;;;3.67;3.47;;;14.70;99.90;;;;;;5093643;28;20634;-88
2022/06/03 01:20:18;;;;;;;3.27;3.07;;;14.70;99.90;;;;;;5093751;28;21268;-89
2022/06/03 01:23:34;;;;;;;3.50;3.30;;;14.70;99.90;;;;;;5093016;28;20651;-88
2022/06/03 01:26:15;;;;;;;4.30;3.37;;;14.70;99.90;;;;;;5082055;28;20643;-87
2022/06/03 01:29:30;;;;;;;5.40;2.90;;;14.70;99.90;;;;;;5091404;28;20718;-88
2022/06/03 01:32:27;;;;;;;3.83;3.63;;;14.70;99.90;;;;;;5093877;28;21049;-88
2022/06/03 01:35:36;;;;;;;3.20;3.00;;;14.70;99.90;;;;;;5098235;28;20633;-88
2022/06/03 01:38:14;;;;;;;3.30;3.00;;;14.70;99.90;;;;;;5087588;28;20622;-88
2022/06/03 01:41:04;;;;;;;3.23;3.03;;;14.60;99.90;;;;;;5091818;28;20682;-87
2022/06/03 01:44:18;;;;;;;4.03;3.60;;;14.60;99.90;;;;;;5089713;28;21152;-89
2022/06/03 01:47:06;;;;;;;3.70;3.50;;;14.60;99.90;;;;;;5096494;28;20907;-90
2022/06/03 01:50:04;;;;;;;3.47;3.23;;;14.60;99.90;;;;;;5090207;28;20679;-89
2022/06/03 01:53:05;;;;;;;4.63;3.90;;;14.50;99.90;;;;;;5087634;28;20638;-89
2022/06/03 01:56:01;;;;;;;4.17;3.87;;;14.50;99.90;;;;;;5115554;28;20648;-87
2022/06/03 01:58:59;;;;;;;4.10;3.80;;;14.50;99.90;;;;;;5102254;28;21542;-87
2022/06/03 02:02:04;;;;;;;4.03;3.73;;;14.50;99.90;;;;;;5090007;28;20663;-88
2022/06/03 02:04:55;;;;;;;4.80;4.10;;;14.50;99.90;;;;;;5095380;28;20627;-88
2022/06/03 02:07:51;;;;;;;4.07;3.77;;;14.50;99.90;;;;;;5092991;28;20636;-88
2022/06/03 02:10:50;;;;;;;4.30;4.00;;;14.50;99.90;;;;;;5081641;28;20666;-87
2022/06/03 02:14:01;;;;;;;4.20;3.80;;;14.50;99.90;;;;;;5091995;28;21024;-88
2022/06/03 02:17:06;;;;;;;3.77;3.57;;;14.50;99.90;;;;;;5091203;28;20629;-89
2022/06/03 02:19:58;;;;;;;3.90;3.70;;;14.40;99.90;;;;;;5085238;28;20684;-88
2022/06/03 02:23:03;;;;;;;3.70;3.50;;;14.40;99.90;;;;;;5086659;28;20632;-88
2022/06/03 02:25:41;;;;;;;4.87;4.47;;;14.40;99.90;;;;;;5092731;28;20628;-88
2022/06/03 02:28:46;;;;;;;4.40;4.00;;;14.40;99.90;;;;;;5089458;28;21170;-89
2022/06/03 02:31:34;;;;;;;5.57;4.00;;;14.40;99.90;;;;;;5080830;28;20662;-89
2022/06/03 02:34:45;;;;;;;5.70;5.20;;;14.40;99.90;;;;;;5088395;28;20602;-88
2022/06/03 02:37:40;;;;;;;5.90;4.90;;;14.40;99.90;;;;;;4987117;28;21217;-89
2022/06/03 02:40:30;;;;;;;4.63;4.07;;;14.40;99.90;;;;;;5080515;28;20680;-88
2022/06/03 02:43:30;;;;;;;4.10;3.80;;;14.40;99.90;;;;;;5087162;28;21065;-89
2022/06/03 02:46:25;;;;;;;4.00;3.70;;;14.40;99.90;;;;;;5089644;28;21176;-89
2022/06/03 02:49:28;;;;;;;4.87;4.00;;;14.40;99.90;;;;;;5089803;28;20628;-88
2022/06/03 02:52:18;;;;;;;4.83;4.43;;;14.40;99.90;;;;;;5081131;28;20646;-89
2022/06/03 02:55:26;;;;;;;4.60;4.20;;;14.40;99.90;;;;;;5095218;28;20628;-89
2022/06/03 02:58:21;;;;;;;4.53;4.13;;;14.40;99.90;;;;;;5079993;28;20706;-88
2022/06/03 03:01:10;;;;;;;4.60;4.30;;;14.50;99.90;;;;;;5091765;28;20687;-89
2022/06/03 03:03:57;;;;;;;4.60;4.20;;;14.40;99.90;;;;;;5090692;28;20711;-88
2022/06/03 03:07:04;;;;;;;3.93;3.63;;;14.40;99.90;;;;;;5087737;28;20638;-89
2022/06/03 03:09:50;;;;;;;5.83;5.30;;;14.40;99.90;;;;;;5097639;28;20654;-89
2022/06/03 03:12:42;;;;;;;5.53;5.13;;;14.40;99.90;;;;;;5092340;28;20634;-88
2022/06/03 03:15:30;;;;;;;5.30;4.90;;;14.40;99.90;;;;;;5092738;28;20636;-89
2022/06/03 03:18:19;;;;;;;5.90;5.33;;;14.40;99.90;;;;;;5062124;28;20708;-90
2022/06/03 03:21:18;;;;;;;5.40;4.97;;;14.40;99.90;;;;;;5095301;28;20683;-89
2022/06/03 03:24:19;;;;;;;4.97;4.57;;;14.40;99.90;;;;;;5078441;28;20620;-89
2022/06/03 03:26:55;;;;;;;5.90;5.30;;;14.40;99.90;;;;;;5098033;28;20614;-90
2022/06/03 03:29:53;;;;;;;6.20;4.90;;;14.50;99.90;;;;;;5101196;28;20627;-89
2022/06/03 03:32:29;;;;;;;5.53;4.83;;;14.40;99.90;;;;;;5076799;28;21149;-89
2022/06/03 03:35:14;;;;;;;7.43;6.10;;;14.40;99.90;;;;;;5072887;28;20627;-89
2022/06/03 03:38:20;;;;;;;6.37;5.40;;;14.40;99.90;;;;;;5089859;28;20743;-90
2022/06/03 03:41:24;;;;;;;4.87;4.50;;;14.40;99.90;;;;;;5096815;28;20668;-90
2022/06/03 03:44:40;;;;;;;4.67;4.37;;;14.40;99.90;;;;;;5095321;28;20623;-90
2022/06/03 03:47:49;;;;;;;6.43;5.90;;;14.40;99.90;;;;;;5042960;28;20837;-89
2022/06/03 03:50:47;;;;;;;10.03;6.60;;;14.40;99.90;;;;;;5093537;28;20655;-89
2022/06/03 03:54:01;;;;;;;8.47;6.60;;;14.40;99.90;;;;;;5072796;28;20619;-90
2022/06/03 03:57:04;;;;;;;7.57;6.90;;;14.40;99.90;;;;;;5091233;28;20959;-89
2022/06/03 04:00:19;;;;;;;7.37;6.77;;;14.30;99.90;;;;;;5053354;28;20978;-89
2022/06/03 04:03:32;;;;;;;6.40;5.80;;;14.30;99.90;;;;;;5093733;28;20608;-89
2022/06/03 04:06:41;;;;;;;7.30;6.43;;;14.30;99.90;;;;;;5050641;28;20632;-87
2022/06/03 04:09:41;;;;;;;6.83;6.23;;;14.40;99.90;;;;;;5075785;28;20675;-87
2022/06/03 04:12:34;;;;;;;6.77;5.93;;;14.40;99.90;;;;;;5091338;28;20631;-88
2022/06/03 04:15:49;;;;;;;7.40;6.70;;;14.50;99.90;;;;;;5091819;28;20628;-88
2022/06/03 04:18:55;;;;;;;6.33;5.73;;;14.50;99.90;;;;;;5085432;28;20643;-90
2022/06/03 04:22:07;;;;;;;6.70;6.10;;;14.60;99.90;;;;;;5034199;28;20676;-90
2022/06/03 04:25:02;;;;;;;7.33;6.60;;;14.60;99.90;;;;;;5085663;28;20624;-89
2022/06/03 04:28:12;;;;;;;6.00;5.50;;;14.70;99.90;;;;;;5073409;28;20680;-89
2022/06/03 04:31:24;;;;;;;6.67;6.10;;;14.80;99.90;;;;;;5090998;28;20620;-89
2022/06/03 04:34:35;;;;;;;6.50;5.87;;;14.80;99.90;;;;;;5047515;28;20630;-91
2022/06/03 04:37:43;;;;;;;6.17;5.70;;;14.90;99.90;;;;;;5045289;28;20987;-90
2022/06/03 04:40:52;;;;;;;6.27;5.77;;;14.90;99.90;;;;;;5087929;28;20655;-89
2022/06/03 04:44:09;;;;;;;6.20;5.60;;;14.90;99.90;;;;;;5090547;28;21155;-89
2022/06/03 04:47:33;;;;;;;6.50;5.87;;;15.00;99.90;;;;;;5093089;28;20709;-90
2022/06/03 04:50:54;;;;;;;6.57;5.97;;;15.00;99.90;;;;;;5096869;28;20636;-89
2022/06/03 04:54:06;;;;;;;6.83;6.33;;;15.20;99.90;;;;;;5074995;28;20706;-88
2022/06/03 04:57:06;;;;;;;6.00;5.60;;;15.20;99.90;;;;;;5074754;28;20627;-87
2022/06/03 05:00:08;;;;;;;5.90;5.50;;;15.20;99.90;;;;;;5084487;28;20702;-88
2022/06/03 05:03:13;;;;;;;7.03;6.43;;;15.40;99.90;;;;;;5094579;28;20607;-88
2022/06/03 05:06:16;;;;;;;7.77;5.50;;;15.50;99.90;;;;;;5111190;28;20619;-88
2022/06/03 05:09:24;;;;;;;6.40;5.87;;;15.60;99.90;;;;;;5094747;28;20652;-87
2022/06/03 05:12:37;;;;;;;6.70;6.10;;;15.70;99.90;;;;;;5089914;28;20642;-88
2022/06/03 05:15:46;;;;;;;6.97;6.47;;;15.80;99.90;;;;;;5093077;28;20623;-88
2022/06/03 05:18:43;;;;;;;6.23;5.83;;;16.00;99.90;;;;;;5094564;28;20682;-89
2022/06/03 05:21:53;;;;;;;6.60;5.90;;;16.10;99.90;;;;;;5090175;28;20694;-88
2022/06/03 05:24:53;;;;;;;6.93;5.60;;;16.20;99.90;;;;;;5092459;28;21301;-88
2022/06/03 05:27:48;;;;;;;6.50;6.10;;;16.40;99.90;;;;;;5086615;28;20611;-89
2022/06/03 05:30:51;;;;;;;7.27;6.17;;;16.40;99.90;;;;;;5084218;28;20624;-88
2022/06/03 05:33:44;;;;;;;6.33;5.83;;;16.50;99.90;;;;;;5075009;28;20698;-89
2022/06/03 05:36:35;;;;;;;7.80;6.00;;;16.70;99.90;;;;;;5090922;28;20631;-88
2022/06/03 05:39:51;;;;;;;6.83;6.20;;;16.70;99.90;;;;;;5088651;28;21054;-89
2022/06/03 05:42:30;;;;;;;7.30;6.63;;;16.80;99.90;;;;;;5092399;28;21692;-85
2022/06/03 05:45:25;;;;;;;9.33;5.50;;;16.30;99.90;;;;;;5092896;28;20634;-85
2022/06/03 05:47:56;;;;;;;9.47;4.90;;;16.30;99.90;;;;;;5057648;28;21199;-85
2022/06/03 05:50:33;;;;;;;5.97;5.47;;;16.90;99.90;;;;;;5087350;28;20616;-85
2022/06/03 05:53:13;;;;;;;6.90;6.30;;;17.20;99.90;;;;;;5084791;28;21301;-82
2022/06/03 05:55:52;;;;;;;6.10;5.30;;;17.40;99.90;;;;;;5090484;28;20624;-83
2022/06/03 05:58:38;;;;;;;5.10;4.70;;;17.80;99.90;;;;;;5088339;28;20620;-82
2022/06/03 06:01:28;;;;;;;8.63;5.10;;;18.20;99.90;;;;;;5086725;28;21023;-81
2022/06/03 06:04:07;;;;;;;5.07;4.57;;;18.50;99.90;;;;;;5087635;28;21169;-82
2022/06/03 06:06:38;;;;;;;5.10;4.60;;;18.70;99.90;;;;;;5085179;28;20654;-81
2022/06/03 06:09:23;;;;;;;5.70;4.40;;;18.90;99.90;;;;;;5091923;28;20631;-82
2022/06/03 06:12:12;;;;;;;5.97;5.43;;;18.90;99.90;;;;;;5090331;28;20808;-82
2022/06/03 06:14:52;;;;;;;6.13;5.53;;;19.00;99.90;;;;;;5089440;28;20642;-82
2022/06/03 06:17:48;;;;;;;6.57;6.07;;;18.70;99.90;;;;;;5091950;28;20969;-81
2022/06/03 06:20:25;;;;;;;6.50;5.30;;;18.50;99.90;;;;;;5089920;28;20660;-82
2022/06/03 06:23:00;;;;;;;4.40;4.10;;;18.30;99.90;;;;;;5087172;28;20784;-82
2022/06/03 06:25:37;;;;;;;4.40;4.10;;;18.10;99.90;;;;;;5089964;28;20638;-82
2022/06/03 06:28:18;;;;;;;10.70;6.70;;;18.20;99.90;;;;;;5081792;28;20634;-82
2022/06/03 06:31:05;;;;;;;5.83;4.93;;;18.50;99.90;;;;;;5084567;28;21422;-82
2022/06/03 06:34:08;;;;;;;5.50;5.00;;;18.70;99.90;;;;;;5088917;28;20651;-83
2022/06/03 06:37:08;;;;;;;5.90;5.40;;;18.80;99.90;;;;;;5089034;28;20620;-82
2022/06/03 06:39:53;;;;;;;9.40;6.33;;;18.60;99.90;;;;;;5083087;28;20627;-83
2022/06/03 06:42:34;;;;;;;9.30;5.63;;;18.60;99.90;;;;;;5088182;28;20685;-83
2022/06/03 06:45:17;;;;;;;6.67;6.07;;;18.60;99.90;;;;;;5095236;28;20615;-85
2022/06/03 06:47:51;;;;;;;6.47;6.07;;;18.80;99.90;;;;;;5092581;28;20631;-86
2022/06/03 06:50:23;;;;;;;7.23;6.53;;;19.00;99.90;;;;;;5092138;28;21297;-86
2022/06/03 06:52:59;;;;;;;8.63;7.53;;;19.00;99.90;;;;;;5088988;28;20656;-85
2022/06/03 06:55:34;;;;;;;6.50;6.00;;;19.10;99.90;;;;;;5096834;28;20709;-86
2022/06/03 06:58:06;;;;;;;6.40;6.00;;;19.30;99.90;;;;;;5090300;28;21060;-87
2022/06/03 07:00:38;;;;;;;6.57;5.87;;;19.50;99.90;;;;;;5094786;28;20667;-87
2022/06/03 07:03:16;;;;;;;8.67;5.90;;;19.60;99.90;;;;;;5094497;28;21020;-87
2022/06/03 07:05:49;;;;;;;9.77;6.47;;;19.70;99.90;;;;;;5089030;28;20642;-86
2022/06/03 07:08:21;;;;;;;6.30;5.43;;;19.90;99.90;;;;;;5093123;28;20672;-87
2022/06/03 07:10:52;;;;;;;5.50;4.90;;;20.00;99.90;;;;;;5092273;28;20627;-87
2022/06/03 07:13:25;;;;;;;6.60;6.10;;;20.10;99.90;;;;;;5092198;28;21253;-86
2022/06/03 07:16:05;;;;;;;5.60;5.20;;;20.20;99.90;;;;;;5092903;28;20623;-86
2022/06/03 07:21:37;;;;;;;5.73;5.23;;;20.40;99.90;;;;;;5092313;28;20696;-87
2022/06/03 07:24:10;;;;;;;8.13;6.00;;;20.60;99.90;;;;;;5096473;28;20648;-88
2022/06/03 07:26:39;;;;;;;5.50;5.10;;;20.60;99.90;;;;;;5093810;28;20621;-86
2022/06/03 07:29:12;;;;;;;5.87;5.43;;;20.70;99.90;;;;;;5097226;28;20626;-86
2022/06/03 07:31:47;;;;;;;7.60;6.03;;;20.70;99.90;;;;;;5092410;28;20647;-87
2022/06/03 07:34:18;;;;;;;4.83;4.50;;;20.80;99.90;;;;;;5094486;28;21189;-86
2022/06/03 07:36:51;;;;;;;6.77;4.50;;;21.00;99.90;;;;;;5095250;28;20620;-87
2022/06/03 07:39:49;;;;;;;4.80;4.00;;;21.20;99.90;;;;;;5095746;28;20635;-87
2022/06/03 07:42:25;;;;;;;5.40;4.90;;;21.40;99.90;;;;;;5091822;28;20675;-86
2022/06/03 07:45:11;;;;;;;5.43;4.93;;;21.40;99.90;;;;;;5096011;28;20623;-86
2022/06/03 07:47:40;;;;;;;6.57;4.83;;;21.50;99.90;;;;;;5095110;28;20634;-86
2022/06/03 07:50:15;;;;;;;7.20;5.10;;;21.70;99.90;;;;;;5094963;28;20626;-86
2022/06/03 07:52:48;;;;;;;5.30;4.97;;;21.90;99.90;;;;;;5091601;28;20654;-86
2022/06/03 07:55:20;;;;;;;4.43;4.03;;;22.00;99.90;;;;;;5095803;28;20802;-86
2022/06/03 07:57:51;;;;;;;6.60;4.93;;;22.10;99.90;;;;;;5089168;28;20632;-86
2022/06/03 08:00:20;;;;;;;3.80;3.60;;;22.20;99.90;;;;;;5095742;28;21039;-85
2022/06/03 08:03:01;;;;;;;5.00;4.60;;;22.40;99.90;;;;;;5092160;28;20654;-86
2022/06/03 08:05:28;;;;;;;4.03;3.53;;;22.70;99.90;;;;;;5090090;28;20619;-86
2022/06/03 08:10:58;;;;;;;5.73;4.40;;;22.80;99.90;;;;;;5094556;28;20682;-86
2022/06/03 08:13:26;;;;;;;5.37;4.47;;;22.80;99.90;;;;;;5095484;28;20654;-86
2022/06/03 08:15:57;;;;;;;5.07;4.67;;;22.80;99.90;;;;;;5095066;28;20608;-86
2022/06/03 08:18:30;;;;;;;4.00;3.80;;;22.80;99.90;;;;;;5091735;28;20628;-85
2022/06/03 08:21:01;;;;;;;4.10;3.80;;;22.90;99.90;;;;;;5096852;28;20643;-86
2022/06/03 08:23:31;;;;;;;4.40;3.20;;;23.00;99.90;;;;;;5094308;28;20671;-86
2022/06/03 08:26:03;;;;;;;4.43;4.03;;;23.10;99.90;;;;;;5095137;28;21130;-85
2022/06/03 08:28:33;;;;;;;6.70;3.60;;;23.20;99.90;;;;;;5087874;28;20688;-85
2022/06/03 08:31:03;;;;;;;5.77;3.50;;;23.40;99.90;;;;;;5093657;28;21114;-85
2022/06/03 08:33:42;;;;;;;3.57;3.20;;;23.50;99.90;;;;;;5093021;28;20647;-86
2022/06/03 08:36:16;;;;;;;3.70;3.37;;;23.60;99.90;;;;;;5096847;28;20626;-85
2022/06/03 08:38:47;;;;;;;3.97;3.67;;;23.80;99.90;;;;;;5090891;28;21235;-86
2022/06/03 08:41:34;;;;;;;4.13;3.43;;;23.80;99.90;;;;;;5095238;28;20686;-86
2022/06/03 08:44:17;;;;;;;3.83;3.57;;;24.00;99.90;;;;;;5086787;28;20616;-85
2022/06/03 08:46:53;;;;;;;3.13;2.87;;;24.10;99.90;;;;;;5096708;28;20955;-85
2022/06/03 08:49:26;;;;;;;3.03;2.70;;;24.30;99.90;;;;;;5084957;28;20695;-85
2022/06/03 08:52:00;;;;;;;4.00;3.70;;;24.30;99.90;;;;;;5094580;28;20758;-84
2022/06/03 08:54:32;;;;;;;3.73;3.43;;;24.40;99.90;;;;;;5089660;28;20625;-86
2022/06/03 08:57:06;;;;;;;3.43;3.23;;;24.50;99.90;;;;;;5093205;28;20628;-86
2022/06/03 08:59:38;;;;;;;3.80;3.60;;;24.70;99.90;;;;;;5094354;28;20615;-87
2022/06/03 09:02:10;;;;;;;9.00;3.77;;;24.90;99.90;;;;;;5093063;28;20675;-86
2022/06/03 09:04:47;;;;;;;3.70;2.77;;;25.00;99.90;;;;;;5092988;28;20684;-87
2022/06/03 09:07:24;;;;;;;3.90;3.50;;;25.00;99.40;;;;;;5090459;28;20690;-86
2022/06/03 09:09:57;;;;;;;3.37;3.10;;;24.90;99.90;;;;;;5095247;28;20714;-86
2022/06/03 09:12:39;;;;;;;4.40;4.00;;;24.90;99.40;;;;;;5092514;28;21225;-86
2022/06/03 09:15:10;;;;;;;4.60;4.23;;;24.90;99.60;;;;;;5088253;28;20636;-87
2022/06/03 09:17:41;;;;;;;3.90;3.60;;;24.90;99.40;;;;;;5097020;28;20624;-87
2022/06/03 09:20:13;;;;;;;4.17;3.87;;;25.00;99.60;;;;;;5095115;28;20627;-87
2022/06/03 09:22:41;;;;;;;3.93;3.60;;;25.10;99.50;;;;;;5091088;28;20722;-86
2022/06/03 09:25:12;;;;;;;4.50;3.47;;;25.10;99.00;;;;;;5081478;28;20678;-86
2022/06/03 09:27:42;;;;;;;3.73;3.50;;;25.30;99.30;;;;;;5085716;28;20643;-87
2022/06/03 09:30:11;;;;;;;3.83;3.43;;;25.30;99.20;;;;;;5088611;28;20659;-87
2022/06/03 09:32:45;;;;;;;3.80;3.50;;;25.40;99.40;;;;;;5094746;28;21248;-85
2022/06/03 09:35:17;;;;;;;5.07;4.10;;;25.50;98.80;;;;;;5095968;28;21004;-85
2022/06/03 09:37:48;;;;;;;3.90;3.50;;;25.70;98.70;;;;;;5091196;28;20631;-84
2022/06/03 09:40:18;;;;;;;4.77;3.70;;;25.70;98.50;;;;;;5090982;28;20702;-85
2022/06/03 09:42:53;;;;;;;3.30;3.10;;;25.80;98.20;;;;;;5085263;28;20684;-85
2022/06/03 09:45:21;;;;;;;3.37;3.07;;;25.90;98.40;;;;;;5086728;28;20623;-84
2022/06/03 09:47:48;;;;;;;3.40;3.10;;;26.00;97.60;;;;;;5091575;28;21227;-86
2022/06/03 09:50:18;;;;;;;3.77;3.47;;;26.30;97.10;;;;;;5093093;28;20616;-86
2022/06/03 09:52:48;;;;;;;3.60;3.30;;;26.40;96.70;;;;;;5086400;28;20667;-87
2022/06/03 09:55:26;;;;;;;3.57;3.37;;;26.50;96.90;;;;;;5087235;28;20630;-87
2022/06/03 09:57:57;;;;;;;3.33;3.07;;;26.70;96.00;;;;;;5087813;28;20624;-86
2022/06/03 10:00:28;;;;;;;3.97;3.67;;;26.80;95.70;;;;;;5086852;28;20637;-87
2022/06/03 10:02:56;;;;;;;3.60;3.40;;;27.00;95.70;;;;;;5093082;28;20672;-87
2022/06/03 10:05:24;;;;;;;3.87;3.57;;;27.10;95.60;;;;;;5089582;28;20620;-86
2022/06/03 10:07:57;;;;;;;3.60;3.40;;;27.10;94.90;;;;;;5087747;28;20642;-86
2022/06/03 10:13:10;;;;;;;2.93;2.73;;;27.20;94.70;;;;;;5092367;28;20693;-86
2022/06/03 10:15:41;;;;;;;4.33;3.17;;;27.40;95.00;;;;;;5091445;28;20635;-86
2022/06/03 10:18:16;;;;;;;3.27;3.00;;;27.60;93.70;;;;;;5092481;28;20628;-86
2022/06/03 10:20:45;;;;;;;3.60;3.27;;;27.60;93.40;;;;;;5096547;28;20982;-86
2022/06/03 10:23:12;;;;;;;3.70;3.40;;;27.80;92.70;;;;;;5098685;28;20668;-86
2022/06/03 10:25:43;;;;;;;3.60;3.30;;;28.00;92.50;;;;;;5093658;28;20634;-86
2022/06/03 10:28:13;;;;;;;3.20;2.90;;;28.10;92.10;;;;;;5099094;28;20654;-86
2022/06/03 10:30:41;;;;;;;2.90;2.70;;;28.20;91.80;;;;;;5099611;28;20621;-86
2022/06/03 10:33:16;;;;;;;3.90;3.00;;;28.40;92.20;;;;;;5097146;28;20663;-86
2022/06/03 10:35:46;;;;;;;5.43;3.00;;;28.60;91.30;;;;;;5102104;28;20618;-86
2022/06/03 10:38:16;;;;;;;3.33;3.03;;;29.00;91.50;;;;;;5104883;28;20963;-86
2022/06/03 10:40:47;;;;;;;2.87;2.67;;;29.30;89.50;;;;;;5090933;28;20719;-86
2022/06/03 10:43:22;;;;;;;3.57;2.80;;;29.50;88.30;;;;;;5093964;28;20658;-86
2022/06/03 10:45:49;;;;;;;2.90;2.70;;;29.80;87.50;;;;;;5096759;28;20630;-86
2022/06/03 10:48:22;;;;;;;2.40;2.30;;;30.00;86.60;;;;;;5099499;28;20625;-86
2022/06/03 10:50:51;;;;;;;4.43;3.23;;;30.20;81.90;;;;;;5091879;28;20612;-85
2022/06/03 11:01:48;;;;;;;2.87;2.67;;;30.60;81.60;;;;;;5101562;28;20670;-86
2022/06/03 11:04:28;;;;;;;3.13;2.90;;;31.00;81.90;;;;;;5100232;28;20636;-86
2022/06/03 11:06:58;;;;;;;2.60;2.40;;;31.40;80.30;;;;;;5089935;28;20631;-85
2022/06/03 11:09:26;;;;;;;3.13;2.83;;;31.40;77.60;;;;;;5098860;28;20639;-86
2022/06/03 11:11:59;;;;;;;2.83;2.63;;;31.30;77.30;;;;;;5098993;28;20640;-83
2022/06/03 11:14:38;;;;;;;2.90;2.70;;;31.30;77.50;;;;;;5081930;28;21279;-86
2022/06/03 11:17:09;;;;;;;3.30;2.60;;;31.40;77.90;;;;;;5095295;28;20715;-86
2022/06/03 11:19:40;;;;;;;3.13;2.33;;;31.20;77.50;;;;;;5097807;28;20706;-86
2022/06/03 11:22:24;;;;;;;3.07;2.77;;;31.20;78.40;;;;;;5099578;28;20686;-86
2022/06/03 11:25:13;;;;;;;7.30;2.83;;;31.10;77.80;;;;;;5099173;28;20624;-86
2022/06/03 11:27:47;;;;;;;4.80;2.30;;;31.00;77.30;;;;;;5092337;28;20649;-86
2022/06/03 11:30:17;;;;;;;2.90;2.70;;;30.70;77.40;;;;;;5088907;28;20754;-86
2022/06/03 11:32:48;;;;;;;3.00;2.80;;;30.60;79.30;;;;;;5091951;28;20774;-86
2022/06/03 11:35:24;;;;;;;6.80;2.70;;;30.40;78.60;;;;;;5098551;28;20634;-86
2022/06/03 11:37:56;;;;;;;3.67;3.37;;;30.20;77.20;;;;;;5094865;28;20627;-86
2022/06/03 11:40:29;;;;;;;3.40;2.90;;;29.90;78.40;;;;;;5092220;28;20634;-86
2022/06/03 11:43:00;;;;;;;4.90;2.93;;;29.80;79.10;;;;;;5088018;28;20671;-86
2022/06/03 11:45:37;;;;;;;2.57;2.20;;;29.60;78.90;;;;;;5090816;28;20701;-86
2022/06/03 11:48:08;;;;;;;2.87;2.67;;;29.50;80.70;;;;;;5092392;28;20603;-87
2022/06/03 11:50:36;;;;;;;2.90;2.70;;;29.40;81.70;;;;;;5095441;28;21001;-86
2022/06/03 11:53:05;;;;;;;3.23;2.93;;;29.40;83.00;;;;;;5090521;28;20662;-86
2022/06/03 11:55:34;;;;;;;2.83;2.63;;;29.40;84.20;;;;;;5093088;28;20976;-86
2022/06/03 11:58:07;;;;;;;3.50;2.87;;;29.40;84.00;;;;;;5092339;28;20630;-86
2022/06/03 12:00:38;;;;;;;3.20;3.00;;;29.50;84.20;;;;;;5093438;28;20624;-86
2022/06/03 12:03:18;;;;;;;3.03;2.70;;;29.50;84.10;;;;;;5094003;28;20685;-86
2022/06/03 12:05:49;;;;;;;3.13;2.90;;;29.60;83.90;;;;;;5087479;28;20778;-87
2022/06/03 12:08:23;;;;;;;2.57;2.40;;;29.60;84.00;;;;;;5086881;28;20651;-86
2022/06/03 12:10:57;;;;;;;5.10;3.23;;;29.50;83.80;;;;;;5090796;28;20624;-86
2022/06/03 12:13:27;;;;;;;3.57;3.27;;;29.40;84.10;;;;;;5089816;28;20709;-86
2022/06/03 12:16:11;;;;;;;3.40;3.13;;;29.50;84.40;;;;;;5088104;28;20716;-86
2022/06/03 12:18:57;;;;;;;2.40;2.30;;;29.50;84.30;;;;;;5088919;28;20634;-87
2022/06/03 12:21:56;;;;;;;3.33;2.90;;;29.60;84.70;;;;;;5092695;28;20650;-86
2022/06/03 12:24:43;;;;;;;3.70;3.17;;;29.60;84.80;;;;;;5087702;28;20628;-86
2022/06/03 12:27:17;;;;;;;3.90;2.87;;;29.50;85.40;;;;;;5083833;28;20985;-86
2022/06/03 12:29:56;;;;;;;6.20;3.00;;;29.40;86.40;;;;;;5090389;28;20722;-86
2022/06/03 12:32:27;;;;;;;3.37;3.07;;;29.50;86.80;;;;;;5088864;28;20659;-85
2022/06/03 12:35:31;;;;;;;3.50;3.03;;;29.40;85.60;;;;;;5077387;28;20636;-86
2022/06/03 12:38:33;;;;;;;3.23;2.93;;;29.30;86.30;;;;;;5062914;28;20650;-86
2022/06/03 12:41:05;;;;;;;4.30;2.73;;;29.30;87.00;;;;;;5094072;28;21214;-86
2022/06/03 12:43:57;;;;;;;3.40;3.20;;;29.30;87.30;;;;;;5086230;28;20682;-86
2022/06/03 12:46:48;;;;;;;3.63;3.20;;;29.20;87.50;;;;;;5091207;28;21471;-86
2022/06/03 12:49:40;;;;;;;5.70;3.40;;;29.00;88.20;;;;;;5081004;28;20640;-86
2022/06/03 12:52:11;;;;;;;4.23;3.03;;;28.90;87.00;;;;;;5091391;28;20753;-86
2022/06/03 12:54:47;;;;;;;3.23;2.93;;;28.80;87.90;;;;;;5092727;28;20631;-86
2022/06/03 12:57:22;;;;;;;6.73;3.30;;;28.70;88.20;;;;;;5096531;28;20630;-85
2022/06/03 12:59:53;;;;;;;5.67;3.73;;;28.60;88.80;;;;;;5094636;28;20735;-86
2022/06/03 13:02:22;;;;;;;8.33;3.50;;;28.20;89.40;;;;;;5089448;28;20674;-86
2022/06/03 13:05:28;;;;;;;5.10;3.90;;;28.10;90.50;;;;;;5098376;28;20725;-86
2022/06/03 13:08:03;;;;;;;3.57;3.23;;;27.90;90.80;;;;;;5088203;28;20635;-86
2022/06/03 13:10:59;;;;;;;4.03;3.63;;;27.70;90.80;;;;;;5090720;28;21095;-86
2022/06/03 13:13:52;;;;;;;4.77;3.27;;;27.70;91.00;;;;;;5086836;28;20680;-86
2022/06/03 13:16:40;;;;;;;5.23;3.90;;;27.70;91.20;;;;;;5093205;28;20631;-86
2022/06/03 13:19:49;;;;;;;6.93;3.80;;;27.70;91.30;;;;;;5096161;28;20627;-86
2022/06/03 13:22:29;;;;;;;4.40;3.80;;;27.80;93.00;;;;;;5094874;28;21130;-86
2022/06/03 13:25:26;;;;;;;4.23;3.57;;;27.90;93.20;;;;;;5089419;28;20752;-85
2022/06/03 13:28:25;;;;;;;4.63;3.60;;;28.10;93.00;;;;;;5090033;28;21212;-86
2022/06/03 13:31:12;;;;;;;3.63;3.43;;;28.20;92.90;;;;;;5094570;28;20738;-87
2022/06/03 13:34:03;;;;;;;4.93;3.50;;;28.10;92.30;;;;;;5092946;28;20724;-87
2022/06/03 13:36:33;;;;;;;4.10;3.70;;;27.90;92.40;;;;;;5090611;28;20718;-86
2022/06/03 13:39:02;;;;;;;8.80;3.40;;;27.70;92.60;;;;;;5090120;28;21164;-87
2022/06/03 13:44:39;;;;;;;9.60;3.97;;;27.30;93.20;;;;;;5089173;28;20986;-87
2022/06/03 13:47:09;;;;;;;4.47;3.90;;;27.10;94.10;;;;;;5088218;28;20642;-87
2022/06/03 13:49:39;;;;;;;3.80;3.60;;;27.10;94.60;;;;;;5092207;28;20624;-86
2022/06/03 13:52:09;;;;;;;5.10;3.93;;;26.90;95.30;;;;;;5090179;28;20696;-87
2022/06/03 13:54:43;;;;;;;4.90;4.40;;;26.70;96.40;;;;;;5088565;28;21076;-87
2022/06/03 13:57:19;;;;;;;5.37;4.43;;;26.80;96.60;;;;;;5091727;28;20615;-86
2022/06/03 13:59:47;;;;;;;7.13;4.17;;;26.70;96.80;;;;;;5090037;28;20614;-87
2022/06/03 14:02:20;;;;;;;4.80;4.40;;;26.60;97.10;;;;;;5090107;28;21195;-87
2022/06/03 14:04:57;;;;;;;4.67;4.27;;;26.70;97.10;;;;;;5088927;28;20666;-87
2022/06/03 14:07:30;;;;;;;4.30;3.87;;;26.70;97.30;;;;;;5088554;28;21056;-88
2022/06/03 14:10:08;;;;;;;4.50;4.10;;;26.70;97.50;;;;;;5094670;28;20631;-87
2022/06/03 14:12:41;;;;;;;4.43;4.13;;;26.60;98.80;;;;;;5089042;28;20620;-87
2022/06/03 14:15:16;;;;;;;3.80;3.50;;;26.50;99.30;;;;;;5089762;28;20687;-88
2022/06/03 14:17:56;;;;;;;4.10;3.80;;;26.40;98.90;;;;;;5094520;28;21173;-87
2022/06/03 14:20:30;;;;;;;4.03;3.73;;;26.40;99.30;;;;;;5089500;28;20715;-88
2022/06/03 14:23:11;;;;;;;4.80;4.40;;;26.30;99.90;;;;;;5095872;28;20659;-87
2022/06/03 14:25:45;;;;;;;5.90;5.40;;;26.20;99.90;;;;;;5087981;28;20670;-88
2022/06/03 14:28:20;;;;;;;7.87;5.70;;;26.00;99.90;;;;;;5087356;28;20616;-87
2022/06/03 14:30:53;;;;;;;5.33;4.90;;;25.90;99.90;;;;;;5094511;28;21186;-87
2022/06/03 14:33:23;;;;;;;6.23;5.40;;;26.00;99.90;;;;;;5090834;28;20619;-87
2022/06/03 14:35:57;;;;;;;5.90;5.30;;;26.00;99.90;;;;;;5085351;28;20658;-88